Terminal Aerodrome Forecast
Issued by NWS Charleston, WV

Home | Current Version | Previous Version | Text Only | Print | Product List | Glossary On
Versions: 1 2 3 4 5 6 7 8 9 10 11 12 13 14 15 16 17 18 19 20 21
920
FTUS41 KRLX 071720
TAFHTS
TAF
KHTS 071720Z 0718/0818 22005KT P6SM SCT250
     FM080300 20004KT P6SM BKN040
     FM081100 21005KT 3SM -SHRASN HZ OVC025
     FM081200 21005KT 2SM -SHSN BR OVC015
     FM081500 23006KT 6SM -SHRA HZ OVC015=

USA.gov is the U.S. government's official web portal to all federal, state and local government web resources and services.